首页
METAR-TAF:

METAR-TAF

机场 :

Felker Army Airfield

Fort Eustis, 弗吉尼亚州, 美国

纬度: 37-08N, 经度: 076-37W, 海拔: 4米

当前天气观测

该预报发布于52分钟前的21:56 UTC
风速5节,风向西转西南
温度 32°C
湿度 52%
气压 1007 hPa
能見度: 16.1公里
天空无云

METAR: KFAF 032156Z AUTO 25005KT 10SM CLR 32/21 A2974 RMK AO2 SLP074 T03160211 $

时间: 18:48 (22:48 UTC)

预报

该预报发布于12小时和48分钟前的10:00 UTC
预报有效从03日的 10点(UTC)到 04日的 16点(UTC)
风速9节,风向西转西南
能见度10公里或以上
散云层高于24000英尺
成为
从 03日的 14点(UTC)到 03日的 15点(UTC)
风速15节,风向西转西南,有时为25节阵风
能见度10公里或以上
少量云层高于5000英尺
少量云层高于13000英尺
成为
从 03日的 21点(UTC)到 03日的 22点(UTC)
风速9节,风向西南
能见度10公里或以上
少量云层高于4500英尺
散云层高于14000英尺
短暂存在
从 04日的 15点(UTC)到 04日的 16点(UTC)
风速15节,风向西,有时为20节阵风
能見度: 4800
阴天层高于3000英尺, 积雨云.
雷暴, 小雨

TAF: KFAF 031000Z 0310/0416 24009KT 9999 SCT240 QNH2986INS BECMG 0314/0315 24015G25KT 9999 FEW050 FEW130 QNH2974INS BECMG 0321/0322 22009KT 9999 FEW045 SCT140 510023 QNH2980INS TEMPO 0415/0416 26015G20KT 4800 -TSRA OVC030CB TX31/0319Z TN20/0310Z

超过4000个机场的气象观测和天气预报(METAR&TAF报告)。

可查询的气象台以黄色和红色小点在地图上表示。

将鼠标移到小点上方,可查看气象台名称。

然后点击查看天气观测和预报。

如需切换地图:点击带黑十字的绿色按钮放大地图;点击带横线的绿色按钮缩小地图;或者点击绿色箭头查看邻近地区的地图。


METAR-TAF: